Time;durP1;ratioP1;P1;durP2;ratioP2;P2;SDS_P1;SDS_P2;PMS_P1;PMS_P2;Temp;Humidity;BMP_temperature;BMP_pressure;BME280_temperature;BME280_humidity;BME280_pressure;Samples;Min_cycle;Max_cycle;Signal;HPM_P1;HPM_P2
2023/04/25 00:02:11;;;;;;;;;30.33;29.33;;;;;16.39;98.23;100709.81;5080149;28;45289;-75
2023/04/25 00:04:37;;;;;;;;;26.33;25.67;;;;;16.31;98.73;100688.59;5080194;28;45200;-75
2023/04/25 00:07:03;;;;;;;;;35.67;30.00;;;;;16.36;98.47;100706.72;5079975;28;45265;-75
2023/04/25 00:09:29;;;;;;;;;26.67;26.67;;;;;16.36;98.87;100698.66;5079594;28;46284;-76
2023/04/25 00:11:54;;;;;;;;;30.33;29.00;;;;;16.32;99.02;100692.09;5080116;28;45190;-76
2023/04/25 00:14:19;;;;;;;;;25.67;24.67;;;;;16.36;98.69;100688.78;5079809;28;45212;-76
2023/04/25 00:16:45;;;;;;;;;27.67;25.67;;;;;16.36;98.93;100693.31;5077363;28;45398;-75
2023/04/25 00:19:11;;;;;;;;;30.33;29.00;;;;;16.29;98.76;100677.28;5059333;28;46291;-75
2023/04/25 00:21:40;;;;;;;;;26.33;24.67;;;;;16.38;98.75;100691.25;5058761;28;45426;-76
2023/04/25 00:24:06;;;;;;;;;29.33;27.33;;;;;16.39;99.29;100691.03;5059702;28;45342;-75
2023/04/25 00:26:33;;;;;;;;;29.33;27.67;;;;;16.40;99.59;100694.53;5059071;28;45490;-75
2023/04/25 00:28:58;;;;;;;;;29.33;25.67;;;;;16.39;99.10;100687.53;5065006;28;45262;-75
2023/04/25 00:31:24;;;;;;;;;25.33;23.67;;;;;16.35;99.19;100684.47;5079534;28;45229;-75
2023/04/25 00:33:49;;;;;;;;;27.00;27.00;;;;;16.37;99.36;100690.41;5079890;28;45204;-76
2023/04/25 00:36:14;;;;;;;;;24.00;22.00;;;;;16.35;98.77;100687.16;5079613;28;45151;-75
2023/04/25 00:38:40;;;;;;;;;21.00;20.67;;;;;16.30;99.28;100676.22;5079603;28;46030;-75
2023/04/25 00:41:08;;;;;;;;;23.00;20.33;;;;;16.33;99.36;100689.22;5079408;28;45250;-75
2023/04/25 00:43:35;;;;;;;;;18.00;17.00;;;;;16.30;98.05;100683.44;5079859;28;45323;-76
2023/04/25 00:46:01;;;;;;;;;17.00;15.67;;;;;16.25;98.11;100689.47;5079429;28;45276;-76
2023/04/25 00:48:27;;;;;;;;;17.00;17.00;;;;;16.15;98.40;100679.19;5079219;28;45609;-76
2023/04/25 00:50:58;;;;;;;;;23.67;20.00;;;;;16.14;98.32;100693.63;5079501;28;45224;-75
2023/04/25 00:53:25;;;;;;;;;17.00;16.33;;;;;16.10;98.02;100689.72;5079751;28;45383;-76
2023/04/25 00:55:51;;;;;;;;;16.67;12.67;;;;;16.05;98.05;100697.56;5080009;28;45401;-76
2023/04/25 00:58:21;;;;;;;;;19.00;18.00;;;;;15.96;98.19;100695.16;5082704;28;45332;-75
2023/04/25 01:00:48;;;;;;;;;18.33;17.00;;;;;16.00;97.96;100696.34;5083075;28;45424;-74
2023/04/25 01:03:17;;;;;;;;;15.67;15.67;;;;;16.07;97.63;100696.31;5083069;28;45556;-76
2023/04/25 01:05:43;;;;;;;;;15.00;15.00;;;;;16.06;96.87;100697.38;5082747;28;45466;-76
2023/04/25 01:08:09;;;;;;;;;16.00;16.00;;;;;16.06;96.82;100696.53;5082697;28;45364;-75
2023/04/25 01:10:34;;;;;;;;;15.67;14.00;;;;;15.91;96.78;100686.88;5082614;28;45317;-76
2023/04/25 01:12:59;;;;;;;;;12.00;12.00;;;;;15.90;96.29;100701.31;5082897;28;45454;-75
2023/04/25 01:15:25;;;;;;;;;12.33;12.33;;;;;15.85;95.77;100695.75;5082757;28;45237;-76
2023/04/25 01:17:50;;;;;;;;;15.33;13.00;;;;;15.77;95.21;100702.97;5082727;28;45439;-75
2023/04/25 01:20:16;;;;;;;;;13.00;13.00;;;;;15.64;95.54;100700.34;5082480;28;45355;-75
2023/04/25 01:22:42;;;;;;;;;14.00;13.67;;;;;15.58;95.61;100696.63;5082855;28;45491;-75
2023/04/25 01:25:09;;;;;;;;;11.33;11.33;;;;;15.47;96.74;100700.78;5082396;28;45482;-75
2023/04/25 01:27:36;;;;;;;;;11.33;10.00;;;;;15.35;97.01;100683.69;5082486;28;45401;-76
2023/04/25 01:30:01;;;;;;;;;11.00;11.00;;;;;15.46;97.34;100703.66;5082289;28;45256;-76
2023/04/25 01:32:27;;;;;;;;;11.67;10.67;;;;;15.45;97.17;100688.63;5082371;28;45399;-75
2023/04/25 01:34:52;;;;;;;;;10.33;10.33;;;;;15.48;97.19;100693.56;5064227;28;45759;-75
2023/04/25 01:37:18;;;;;;;;;10.00;9.00;;;;;15.27;97.26;100677.50;5082340;28;45247;-76
2023/04/25 01:39:44;;;;;;;;;9.00;8.00;;;;;15.38;97.84;100693.97;5082199;28;45297;-76
2023/04/25 01:42:09;;;;;;;;;10.00;10.00;;;;;15.34;98.32;100690.06;5082601;28;45226;-76
2023/04/25 01:44:34;;;;;;;;;8.00;6.33;;;;;15.34;98.49;100688.22;5082275;28;45629;-76
2023/04/25 01:47:00;;;;;;;;;11.67;11.67;;;;;15.34;98.30;100687.41;5082136;27;45331;-75
2023/04/25 01:49:25;;;;;;;;;9.33;8.33;;;;;15.22;98.68;100684.53;5082372;28;45202;-75
2023/04/25 01:51:51;;;;;;;;;9.67;9.00;;;;;15.25;98.38;100686.78;5082410;28;45236;-75
2023/04/25 01:54:18;;;;;;;;;8.67;8.67;;;;;15.17;98.38;100677.09;5063703;28;45804;-76
2023/04/25 01:56:43;;;;;;;;;9.67;9.67;;;;;15.28;98.55;100691.72;5082105;28;45419;-75
2023/04/25 01:59:08;;;;;;;;;7.00;7.00;;;;;15.27;98.58;100692.78;5082086;28;45373;-76
2023/04/25 02:01:34;;;;;;;;;8.67;8.67;;;;;15.24;98.80;100691.31;5082168;28;45313;-75
2023/04/25 02:03:59;;;;;;;;;10.00;10.00;;;;;15.26;98.69;100705.31;5082067;28;45315;-75
2023/04/25 02:06:25;;;;;;;;;7.00;7.00;;;;;15.26;98.99;100693.78;5081422;28;45386;-75
2023/04/25 02:08:50;;;;;;;;;10.00;9.33;;;;;15.34;99.00;100698.09;5081816;28;45359;-76
2023/04/25 02:11:15;;;;;;;;;10.33;9.33;;;;;15.36;99.38;100693.38;5082013;28;45401;-76
2023/04/25 02:13:41;;;;;;;;;13.00;12.67;;;;;15.38;99.50;100688.63;5081903;28;45519;-75
2023/04/25 02:16:06;;;;;;;;;8.33;8.33;;;;;15.44;99.15;100693.16;5081862;28;45658;-75
2023/04/25 02:18:31;;;;;;;;;10.00;10.00;;;;;15.48;99.11;100698.94;5081885;28;45259;-75
2023/04/25 02:20:58;;;;;;;;;11.33;11.33;;;;;15.48;98.52;100699.72;5081755;28;45280;-76
2023/04/25 02:23:24;;;;;;;;;10.67;9.00;;;;;15.36;97.92;100683.47;5081851;28;45181;-75
2023/04/25 02:25:50;;;;;;;;;9.00;9.00;;;;;15.42;98.21;100705.09;5081378;28;45578;-75
2023/04/25 02:28:16;;;;;;;;;8.33;8.33;;;;;15.26;97.53;100685.75;5081785;28;45189;-76
2023/04/25 02:30:41;;;;;;;;;9.33;9.33;;;;;15.27;97.45;100704.28;5101802;27;45524;-76
2023/04/25 02:33:06;;;;;;;;;9.33;8.67;;;;;15.27;97.81;100706.16;5102024;27;45639;-76
2023/04/25 02:35:32;;;;;;;;;10.33;8.67;;;;;15.22;97.28;100695.22;5101974;27;45421;-75
2023/04/25 02:37:57;;;;;;;;;11.00;10.00;;;;;15.08;97.46;100697.09;5101945;27;45314;-76
2023/04/25 02:40:22;;;;;;;;;10.67;9.00;;;;;15.06;97.45;100702.66;5101872;27;45302;-75
2023/04/25 02:42:48;;;;;;;;;11.33;10.00;;;;;15.05;97.41;100705.53;5101919;27;45317;-75
2023/04/25 02:45:13;;;;;;;;;8.33;7.67;;;;;14.98;96.97;100694.81;5101718;27;45347;-75
2023/04/25 02:47:38;;;;;;;;;10.33;10.00;;;;;14.89;96.84;100694.19;5101720;27;45315;-76
2023/04/25 02:50:04;;;;;;;;;8.33;6.67;;;;;14.77;97.01;100694.78;5101915;27;45374;-75
2023/04/25 02:52:30;;;;;;;;;6.67;6.67;;;;;14.75;96.96;100704.00;5101687;27;45415;-76
2023/04/25 02:54:55;;;;;;;;;9.00;8.33;;;;;14.74;96.39;100686.31;5101419;27;45765;-76
2023/04/25 02:57:20;;;;;;;;;9.00;8.00;;;;;14.81;96.85;100703.22;5101586;27;45335;-75
2023/04/25 02:59:46;;;;;;;;;11.67;10.67;;;;;14.68;96.77;100687.97;5101721;27;45287;-75
2023/04/25 03:02:11;;;;;;;;;11.00;9.33;;;;;14.71;96.70;100700.09;5101733;27;46095;-75
2023/04/25 03:04:37;;;;;;;;;9.00;9.00;;;;;14.77;97.24;100716.16;5101425;27;45196;-76
2023/04/25 03:07:03;;;;;;;;;8.67;7.00;;;;;14.78;96.94;100711.66;5101426;27;45254;-76
2023/04/25 03:09:28;;;;;;;;;7.33;7.33;;;;;14.78;97.16;100711.66;5101538;27;45286;-75
2023/04/25 03:11:53;;;;;;;;;8.00;8.00;;;;;14.83;97.17;100713.72;5101427;27;45269;-75
2023/04/25 03:14:18;;;;;;;;;9.33;9.33;;;;;14.83;97.27;100706.53;5101425;27;45302;-75
2023/04/25 03:16:44;;;;;;;;;8.00;6.00;;;;;14.87;97.37;100713.13;5101317;27;45382;-75
2023/04/25 03:19:10;;;;;;;;;10.67;9.67;;;;;14.84;98.09;100702.00;5100650;27;45284;-75
2023/04/25 03:21:35;;;;;;;;;11.00;11.00;;;;;14.80;98.22;100706.09;5101056;27;45498;-76
2023/04/25 03:24:03;;;;;;;;;9.33;9.33;;;;;14.83;98.70;100709.22;5101012;27;45453;-75
2023/04/25 03:26:28;;;;;;;;;8.33;8.00;;;;;14.88;98.97;100716.63;5101263;27;45390;-76
2023/04/25 03:28:54;;;;;;;;;9.67;9.67;;;;;14.91;99.47;100720.75;5096043;27;45267;-75
2023/04/25 03:31:19;;;;;;;;;12.67;11.00;;;;;14.91;99.33;100712.72;5080544;28;45320;-75
2023/04/25 03:33:45;;;;;;;;;12.00;11.00;;;;;14.91;99.52;100718.06;5080653;28;45328;-76
2023/04/25 03:36:10;;;;;;;;;10.67;9.33;;;;;14.94;99.73;100717.66;5062118;28;45355;-76
2023/04/25 03:38:35;;;;;;;;;12.67;11.00;;;;;14.92;99.88;100712.50;5078695;28;45261;-76
2023/04/25 03:41:02;;;;;;;;;10.33;10.33;;;;;14.84;100.00;100712.69;5072422;28;45573;-74
2023/04/25 03:43:27;;;;;;;;;12.33;12.00;;;;;14.90;100.00;100709.19;5079138;28;45333;-75
2023/04/25 03:45:52;;;;;;;;;12.33;11.33;;;;;15.01;100.00;100719.31;5079894;28;45226;-76
2023/04/25 03:48:19;;;;;;;;;14.33;12.33;;;;;15.04;99.42;100715.41;5080180;28;45280;-78
2023/04/25 03:50:44;;;;;;;;;13.00;12.00;;;;;15.01;99.36;100716.66;5079967;28;45189;-76
2023/04/25 03:53:09;;;;;;;;;13.33;12.33;;;;;14.93;98.99;100716.81;5079967;28;46079;-76
2023/04/25 03:55:35;;;;;;;;;9.67;9.33;;;;;14.98;98.57;100716.22;5080150;28;45272;-76
2023/04/25 03:58:00;;;;;;;;;11.00;11.00;;;;;14.90;98.51;100711.88;5080218;28;45479;-75
2023/04/25 04:00:25;;;;;;;;;7.00;5.00;;;;;14.93;98.30;100718.69;5080184;28;45180;-75
2023/04/25 04:02:51;;;;;;;;;12.33;12.33;;;;;14.89;97.77;100720.94;5079031;28;45341;-76
2023/04/25 04:05:16;;;;;;;;;12.67;11.33;;;;;14.70;97.11;100712.63;5079862;28;45302;-75
2023/04/25 04:07:42;;;;;;;;;13.67;11.33;;;;;14.77;97.96;100721.53;5079842;28;45545;-75
2023/04/25 04:10:09;;;;;;;;;13.67;13.67;;;;;14.79;98.40;100724.03;5079803;28;45477;-76
2023/04/25 04:12:34;;;;;;;;;18.00;15.33;;;;;14.74;97.81;100721.09;5079659;28;46132;-75
2023/04/25 04:15:04;;;;;;;;;12.33;12.00;;;;;14.77;98.68;100728.72;5079817;28;45418;-76
2023/04/25 04:17:30;;;;;;;;;15.33;12.67;;;;;14.83;99.07;100730.63;5079767;28;45307;-76
2023/04/25 04:19:56;;;;;;;;;16.67;14.00;;;;;14.76;99.13;100714.50;5079661;28;45460;-76
2023/04/25 04:22:22;;;;;;;;;19.67;16.67;;;;;14.91;99.18;100732.28;5078878;28;46004;-76
2023/04/25 04:24:47;;;;;;;;;15.67;15.67;;;;;14.97;99.23;100736.00;5079497;28;45320;-78
2023/04/25 04:27:13;;;;;;;;;17.00;15.00;;;;;14.97;99.83;100736.78;5079823;28;45328;-78
2023/04/25 04:29:38;;;;;;;;;15.33;14.67;;;;;15.09;100.00;100742.38;5070977;28;45374;-76
2023/04/25 04:32:04;;;;;;;;;18.67;17.67;;;;;15.10;99.93;100738.69;5078408;28;45327;-75
2023/04/25 04:34:30;;;;;;;;;16.33;15.67;;;;;15.09;100.00;100741.56;5060034;28;45273;-75
2023/04/25 04:36:56;;;;;;;;;18.33;15.33;;;;;15.04;100.00;100734.13;5059553;28;45241;-76
2023/04/25 04:39:22;;;;;;;;;15.33;15.33;;;;;15.11;100.00;100744.84;5061033;28;45240;-79
2023/04/25 04:41:48;;;;;;;;;16.00;15.67;;;;;15.23;100.00;100753.09;5042493;28;47976;-75
2023/04/25 04:44:13;;;;;;;;;19.00;18.00;;;;;15.18;100.00;100756.41;5066426;28;45345;-77
2023/04/25 04:46:41;;;;;;;;;15.67;15.00;;;;;15.25;100.00;100767.94;5077923;28;45347;-76
2023/04/25 04:49:10;;;;;;;;;17.33;16.00;;;;;15.34;100.00;100778.44;5061529;28;45475;-76
2023/04/25 04:51:36;;;;;;;;;27.33;26.00;;;;;15.29;100.00;100762.97;5058728;28;45977;-75
2023/04/25 04:54:02;;;;;;;;;17.00;17.00;;;;;15.38;100.00;100768.94;5057885;28;45426;-75
2023/04/25 04:56:30;;;;;;;;;18.67;17.33;;;;;15.48;100.00;100772.03;5059421;28;45345;-76
2023/04/25 04:58:56;;;;;;;;;20.33;19.33;;;;;15.55;100.00;100779.25;5076683;28;45428;-75
2023/04/25 05:01:22;;;;;;;;;21.00;17.00;;;;;15.57;100.00;100780.72;5079143;28;46381;-77
2023/04/25 05:03:47;;;;;;;;;17.33;17.33;;;;;15.56;100.00;100784.41;5079288;28;45368;-76
2023/04/25 05:06:13;;;;;;;;;22.00;19.33;;;;;15.63;100.00;100782.53;5079412;28;45399;-76
2023/04/25 05:08:38;;;;;;;;;21.00;19.00;;;;;15.60;100.00;100790.19;5079718;28;45288;-77
2023/04/25 05:11:03;;;;;;;;;18.00;18.00;;;;;15.75;100.00;100801.50;5061240;28;48198;-76
2023/04/25 05:13:29;;;;;;;;;22.33;20.00;;;;;15.71;100.00;100799.47;5079433;28;45358;-76
2023/04/25 05:15:54;;;;;;;;;20.33;18.67;;;;;15.78;100.00;100808.31;5060909;28;45374;-76
2023/04/25 05:18:20;;;;;;;;;20.67;19.67;;;;;15.85;100.00;100813.66;5078226;28;45447;-75
2023/04/25 05:20:45;;;;;;;;;20.33;20.33;;;;;15.87;100.00;100808.94;5077988;28;45394;-75
2023/04/25 05:23:11;;;;;;;;;24.33;23.00;;;;;15.95;100.00;100815.94;5080418;28;45331;-76
2023/04/25 05:25:36;;;;;;;;;23.67;21.00;;;;;15.96;99.89;100820.25;5079241;28;45908;-75
2023/04/25 05:28:01;;;;;;;;;22.67;21.33;;;;;15.90;99.02;100827.28;5078877;28;45434;-75
2023/04/25 05:30:27;;;;;;;;;18.00;18.00;;;;;15.90;98.52;100829.94;5078118;28;45508;-75
2023/04/25 05:32:52;;;;;;;;;20.00;19.00;;;;;15.85;97.93;100832.41;5079522;28;45364;-76
2023/04/25 05:35:17;;;;;;;;;22.67;19.67;;;;;15.84;97.67;100836.13;5079376;28;44880;-75
2023/04/25 05:37:43;;;;;;;;;23.00;22.00;;;;;15.83;97.99;100834.50;5079053;28;45192;-75
2023/04/25 05:40:09;;;;;;;;;24.33;23.67;;;;;15.74;97.67;100840.03;5078234;28;49911;-76
2023/04/25 05:42:35;;;;;;;;;24.33;24.00;;;;;15.72;97.93;100850.16;5080653;28;45286;-75
2023/04/25 05:45:00;;;;;;;;;17.00;16.00;;;;;15.72;97.59;100852.84;5082327;28;45431;-75
2023/04/25 05:47:26;;;;;;;;;24.67;24.00;;;;;15.67;97.89;100844.59;5082042;28;45263;-75
2023/04/25 05:49:51;;;;;;;;;24.33;23.00;;;;;15.70;98.10;100856.75;5082221;28;45437;-75
2023/04/25 05:52:16;;;;;;;;;26.33;22.33;;;;;15.67;98.57;100859.81;5082154;28;45426;-75
2023/04/25 05:54:42;;;;;;;;;23.00;21.33;;;;;15.62;98.58;100857.75;5081888;28;45452;-75
2023/04/25 05:57:07;;;;;;;;;23.00;21.33;;;;;15.73;98.72;100867.88;5082114;28;45319;-75
2023/04/25 05:59:32;;;;;;;;;25.67;25.67;;;;;15.76;98.71;100872.84;5082042;28;45469;-75
2023/04/25 06:01:58;;;;;;;;;16.33;16.33;;;;;15.74;98.23;100872.19;5081506;28;45308;-75
2023/04/25 06:04:23;;;;;;;;;24.33;21.67;;;;;15.74;98.08;100877.56;5082037;28;45346;-75
2023/04/25 06:06:48;;;;;;;;;25.00;23.67;;;;;15.71;98.54;100879.84;5081938;28;45383;-75
2023/04/25 06:09:14;;;;;;;;;23.67;22.67;;;;;15.76;99.00;100882.72;5081751;28;45997;-75
2023/04/25 06:11:39;;;;;;;;;24.00;23.00;;;;;15.65;98.47;100890.34;5081831;28;45356;-75
2023/04/25 06:14:06;;;;;;;;;22.33;19.67;;;;;15.63;99.09;100887.03;5082050;28;45335;-76
2023/04/25 06:16:31;;;;;;;;;27.33;23.67;;;;;15.59;98.79;100887.66;5081899;28;45150;-76
2023/04/25 06:18:57;;;;;;;;;20.00;20.00;;;;;15.42;98.45;100869.31;5081546;28;45231;-76
2023/04/25 06:21:22;;;;;;;;;21.00;20.33;;;;;15.45;98.98;100879.59;5081673;28;45350;-75
2023/04/25 06:23:47;;;;;;;;;22.00;20.67;;;;;15.43;98.97;100878.97;5081620;28;45286;-75
2023/04/25 06:26:13;;;;;;;;;22.33;21.67;;;;;15.50;99.44;100889.69;5081575;28;45388;-74
2023/04/25 06:28:38;;;;;;;;;26.33;23.67;;;;;15.44;100.00;100891.31;5084512;27;45415;-74
2023/04/25 06:31:03;;;;;;;;;21.33;20.33;;;;;15.40;100.00;100892.78;5083198;27;45334;-74
2023/04/25 06:33:29;;;;;;;;;21.33;19.33;;;;;15.39;100.00;100888.44;5102202;27;45267;-73
2023/04/25 06:35:54;;;;;;;;;21.33;21.33;;;;;15.37;100.00;100885.97;5101975;27;45159;-74
2023/04/25 06:38:20;;;;;;;;;21.00;19.67;;;;;15.34;100.00;100882.88;5101864;27;46045;-74
2023/04/25 06:40:45;;;;;;;;;23.00;20.67;;;;;15.36;100.00;100896.88;5101627;27;45413;-74
2023/04/25 06:43:10;;;;;;;;;17.67;17.00;;;;;15.36;100.00;100894.22;5101784;27;46204;-74
2023/04/25 06:45:36;;;;;;;;;19.67;18.67;;;;;15.30;100.00;100895.00;5101909;27;45260;-74
2023/04/25 06:48:01;;;;;;;;;20.67;18.67;;;;;15.43;100.00;100902.25;5101564;27;45718;-74
2023/04/25 06:50:27;;;;;;;;;22.00;19.33;;;;;15.49;100.00;100907.63;5101544;27;45247;-74
2023/04/25 06:52:52;;;;;;;;;18.33;15.67;;;;;15.63;100.00;100915.69;5101297;27;45426;-74
2023/04/25 06:55:17;;;;;;;;;15.67;15.67;;;;;15.73;100.00;100917.94;5100859;27;45314;-74
2023/04/25 06:57:43;;;;;;;;;17.33;16.00;;;;;15.80;100.00;100923.34;5101440;27;46033;-74
2023/04/25 07:00:09;;;;;;;;;17.00;16.00;;;;;15.78;99.52;100927.03;5101577;27;45470;-74
2023/04/25 07:02:38;;;;;;;;;20.00;16.33;;;;;15.69;98.94;100924.75;5101658;27;45267;-74
2023/04/25 07:05:04;;;;;;;;;17.67;14.67;;;;;15.77;98.69;100932.59;5101425;27;45423;-75
2023/04/25 07:07:30;;;;;;;;;11.33;11.33;;;;;15.69;98.59;100939.00;5101277;27;45386;-75
2023/04/25 07:09:56;;;;;;;;;13.33;12.00;;;;;15.59;98.75;100933.19;5101137;27;45330;-75
2023/04/25 07:12:21;;;;;;;;;17.33;17.33;;;;;15.59;99.30;100947.41;5101497;27;45403;-75
2023/04/25 07:14:46;;;;;;;;;16.33;15.00;;;;;15.58;99.24;100947.59;5101371;27;45426;-74
2023/04/25 07:17:12;;;;;;;;;18.67;16.00;;;;;15.58;99.04;100951.13;5101185;27;45330;-74
2023/04/25 07:19:39;;;;;;;;;17.33;15.67;;;;;15.59;98.58;100958.13;5082620;27;45457;-75
2023/04/25 07:22:05;;;;;;;;;16.33;16.00;;;;;15.47;98.86;100941.00;5101216;27;45396;-75
2023/04/25 07:24:30;;;;;;;;;20.00;17.67;;;;;15.50;98.95;100954.81;5100833;27;45483;-75
2023/04/25 07:26:56;;;;;;;;;21.00;19.67;;;;;15.53;99.22;100962.44;5101008;27;45387;-75
2023/04/25 07:29:21;;;;;;;;;23.67;19.33;;;;;15.42;99.98;100946.97;5092014;27;45320;-75
2023/04/25 07:31:46;;;;;;;;;22.00;19.67;;;;;15.47;99.22;100955.19;5080587;28;45227;-75
2023/04/25 07:34:12;;;;;;;;;18.33;14.67;;;;;15.53;98.92;100961.59;5080572;28;45179;-75
2023/04/25 07:36:37;;;;;;;;;22.00;22.00;;;;;15.51;97.82;100971.72;5080411;28;45237;-75
2023/04/25 07:39:03;;;;;;;;;19.67;18.00;;;;;15.51;98.75;100980.56;5078898;28;45237;-76
2023/04/25 07:41:28;;;;;;;;;20.67;20.00;;;;;15.43;98.90;100970.03;5080603;28;45365;-75
2023/04/25 07:43:53;;;;;;;;;24.33;19.67;;;;;15.48;99.63;100983.63;5080505;28;45291;-75
2023/04/25 07:46:19;;;;;;;;;23.00;21.33;;;;;15.55;99.42;100985.50;5080363;28;46531;-75
2023/04/25 07:48:44;;;;;;;;;22.33;21.33;;;;;15.59;99.56;100994.81;5080215;28;45280;-76
2023/04/25 07:51:09;;;;;;;;;22.33;19.67;;;;;15.67;99.13;100991.94;5080420;28;45414;-76
2023/04/25 07:53:37;;;;;;;;;18.67;16.33;;;;;15.60;98.46;100983.06;5080376;28;45485;-75
2023/04/25 07:56:03;;;;;;;;;22.00;19.00;;;;;15.74;99.69;101003.50;5079882;28;46072;-76
2023/04/25 07:58:28;;;;;;;;;17.00;17.00;;;;;15.85;99.61;101007.44;5080221;28;45254;-75
2023/04/25 08:00:53;;;;;;;;;24.67;23.33;;;;;15.87;99.87;101007.25;5080386;28;45295;-75
2023/04/25 08:03:19;;;;;;;;;22.33;21.67;;;;;15.97;99.27;101012.22;5080369;28;45326;-76
2023/04/25 08:05:45;;;;;;;;;23.00;21.67;;;;;15.94;98.13;101023.31;5079560;28;45350;-76
2023/04/25 08:08:10;;;;;;;;;22.67;20.00;;;;;15.92;97.74;101031.56;5080088;28;45367;-76
2023/04/25 08:10:36;;;;;;;;;24.33;23.33;;;;;15.93;98.22;101033.25;5079960;28;45975;-75
2023/04/25 08:13:01;;;;;;;;;22.00;20.67;;;;;15.93;97.99;101032.41;5080039;28;45417;-76
2023/04/25 08:15:26;;;;;;;;;32.67;31.67;;;;;15.92;98.31;101039.59;5080005;28;45341;-76
2023/04/25 08:17:52;;;;;;;;;29.00;28.67;;;;;15.82;96.96;101039.16;5079920;28;45259;-76
2023/04/25 08:20:17;;;;;;;;;25.00;24.33;;;;;15.78;97.38;101058.31;5079837;28;45219;-75
2023/04/25 08:22:43;;;;;;;;;29.33;24.00;;;;;15.72;97.43;101047.59;5080016;28;45201;-76
2023/04/25 08:25:08;;;;;;;;;29.67;29.00;;;;;15.76;96.23;101057.72;5079781;28;45241;-77
2023/04/25 08:27:33;;;;;;;;;32.00;28.67;;;;;15.73;96.30;101047.41;5079800;28;45255;-76
2023/04/25 08:29:59;;;;;;;;;20.67;18.33;;;;;15.78;96.33;101052.16;5094178;27;45326;-76
2023/04/25 08:32:25;;;;;;;;;26.00;23.00;;;;;15.94;96.66;101060.84;5081520;27;46189;-76
2023/04/25 08:34:53;;;;;;;;;25.33;25.00;;;;;16.03;97.49;101065.03;5100188;27;45354;-76
2023/04/25 08:37:19;;;;;;;;;26.00;23.33;;;;;16.05;96.60;101046.91;5100100;27;45279;-76
2023/04/25 08:39:45;;;;;;;;;22.33;22.33;;;;;16.14;96.19;101055.56;5100133;27;45283;-76
2023/04/25 08:42:12;;;;;;;;;29.33;25.67;;;;;16.01;96.14;101053.66;5099940;27;45378;-76
2023/04/25 08:44:37;;;;;;;;;35.33;30.33;;;;;16.14;95.54;101064.41;5100110;27;45306;-77
2023/04/25 08:47:04;;;;;;;;;25.33;23.67;;;;;16.16;96.51;101064.22;5099785;27;45283;-77
2023/04/25 08:49:33;;;;;;;;;23.00;22.67;;;;;16.16;94.74;101058.84;5100165;27;45209;-76
2023/04/25 08:52:06;;;;;;;;;29.00;27.33;;;;;16.08;94.66;101059.91;5099817;27;45524;-76
2023/04/25 08:54:32;;;;;;;;;29.33;27.00;;;;;16.01;95.05;101070.59;5099630;27;45545;-77
2023/04/25 08:57:03;;;;;;;;;29.33;27.00;;;;;16.01;95.63;101069.75;5099865;27;45613;-77
2023/04/25 08:59:30;;;;;;;;;20.33;19.00;;;;;16.07;95.04;101074.31;5100001;27;45362;-76
2023/04/25 09:01:56;;;;;;;;;28.00;26.67;;;;;16.08;93.67;101099.28;5099848;27;45609;-77
2023/04/25 09:04:21;;;;;;;;;24.67;22.67;;;;;16.06;94.22;101102.16;5099453;27;46080;-76
2023/04/25 09:06:48;;;;;;;;;26.00;23.67;;;;;16.11;94.41;101115.81;5099649;27;45321;-77
2023/04/25 09:09:13;;;;;;;;;19.00;17.67;;;;;16.28;95.33;101099.31;5099684;27;45429;-77
2023/04/25 09:11:40;;;;;;;;;15.67;15.67;;;;;16.35;93.92;101096.66;5099777;27;45290;-77
2023/04/25 09:14:14;;;;;;;;;20.33;17.67;;;;;16.46;92.55;101104.06;5099618;27;46195;-76
2023/04/25 09:16:55;;;;;;;;;16.67;16.67;;;;;16.53;91.66;101114.84;5100325;27;45358;-76
2023/04/25 09:19:25;;;;;;;;;17.00;16.00;;;;;16.41;90.58;101103.88;5103468;27;45492;-76
2023/04/25 09:21:53;;;;;;;;;23.67;23.67;;;;;16.48;90.47;101115.44;5102721;27;45374;-77
2023/04/25 09:24:40;;;;;;;;;18.00;18.00;;;;;16.56;90.79;101127.00;5102837;27;45477;-76
2023/04/25 09:27:11;;;;;;;;;26.67;22.67;;;;;16.40;90.93;101108.41;5103121;27;45358;-76
2023/04/25 09:29:38;;;;;;;;;20.67;20.00;;;;;16.56;90.83;101127.00;5091786;27;45335;-76
2023/04/25 09:32:17;;;;;;;;;19.67;19.67;;;;;16.69;90.59;101131.53;5082349;28;45351;-76
2023/04/25 09:34:49;;;;;;;;;18.00;18.00;;;;;16.71;91.02;101111.53;5082425;28;46002;-77
2023/04/25 09:37:23;;;;;;;;;31.33;28.33;;;;;16.96;91.34;101136.91;5082435;28;45252;-77
2023/04/25 09:39:50;;;;;;;;;25.00;22.33;;;;;17.00;91.47;101132.81;5082502;28;45301;-76
2023/04/25 09:42:16;;;;;;;;;87.25;73.50;;;;;17.17;91.14;101133.22;5082476;28;45218;-76
2023/04/25 09:44:46;;;;;;;;;25.33;25.33;;;;;17.27;89.26;101136.28;5082351;28;45389;-76
2023/04/25 09:47:13;;;;;;;;;15.33;14.00;;;;;17.24;88.03;101127.84;5082179;27;45534;-76
2023/04/25 09:49:43;;;;;;;;;14.33;13.00;;;;;17.31;86.63;101144.78;5082307;28;45342;-76
2023/04/25 09:52:12;;;;;;;;;17.00;16.00;;;;;17.28;86.67;101146.03;5082087;28;45513;-76
2023/04/25 09:54:38;;;;;;;;;16.33;16.33;;;;;17.23;85.37;101153.88;5081863;28;45292;-76
2023/04/25 09:57:12;;;;;;;;;14.00;13.00;;;;;17.21;85.39;101160.50;5082179;28;45350;-77
2023/04/25 09:59:42;;;;;;;;;14.33;14.00;;;;;17.12;85.02;101144.56;5082323;28;45217;-76
2023/04/25 10:02:09;;;;;;;;;10.67;10.00;;;;;17.22;85.18;101165.66;5081942;28;45469;-75
2023/04/25 10:04:35;;;;;;;;;17.67;16.00;;;;;17.26;84.53;101177.63;5081964;28;46578;-76
2023/04/25 10:07:05;;;;;;;;;17.67;16.67;;;;;17.24;85.20;101147.44;5063625;28;45304;-76
2023/04/25 10:09:33;;;;;;;;;13.00;13.00;;;;;17.40;83.96;101177.59;5081899;28;45315;-76
2023/04/25 10:11:59;;;;;;;;;15.67;14.33;;;;;17.43;83.65;101171.81;5081866;28;45317;-76
2023/04/25 10:14:25;;;;;;;;;16.33;16.00;;;;;17.53;84.25;101168.69;5081737;28;46405;-76
2023/04/25 10:16:53;;;;;;;;;14.33;12.67;;;;;17.50;84.66;101144.91;5081796;28;45335;-76
2023/04/25 10:19:20;;;;;;;;;11.33;11.00;;;;;17.76;82.39;101162.84;5081646;28;45343;-76
2023/04/25 10:21:54;;;;;;;;;14.00;14.00;;;;;17.93;81.72;101175.81;5080715;28;45338;-76
2023/04/25 10:24:20;;;;;;;;;14.00;13.33;;;;;18.16;82.40;101174.47;5080525;28;46140;-76
2023/04/25 10:26:46;;;;;;;;;11.00;10.00;;;;;18.33;80.55;101177.50;5081296;28;45339;-76
2023/04/25 10:29:12;;;;;;;;;12.00;11.33;;;;;18.40;79.95;101166.69;5080152;28;45378;-76
2023/04/25 10:31:46;;;;;;;;;12.67;12.33;;;;;18.36;79.57;101160.09;5081463;28;45474;-76
2023/04/25 10:34:11;;;;;;;;;10.00;10.00;;;;;18.33;79.70;101156.00;5081763;28;45349;-76
2023/04/25 10:36:37;;;;;;;;;9.00;9.00;;;;;18.27;77.23;101160.38;5082026;28;45659;-76
2023/04/25 10:39:09;;;;;;;;;14.67;11.67;;;;;18.31;77.10;101176.91;5081531;28;45403;-76
2023/04/25 10:42:02;;;;;;;;;9.67;9.00;;;;;18.29;77.05;101179.78;5081919;28;45400;-76
2023/04/25 10:44:31;;;;;;;;;10.67;9.00;;;;;18.29;75.92;101182.47;5077683;28;46453;-76
2023/04/25 10:47:00;;;;;;;;;8.00;7.33;;;;;18.09;75.48;101173.66;5062976;28;45368;-76
2023/04/25 10:49:43;;;;;;;;;9.33;8.67;;;;;18.05;75.34;101171.41;5081613;28;45501;-76
2023/04/25 10:52:26;;;;;;;;;10.67;9.00;;;;;17.98;75.60;101170.63;5081365;28;45491;-76
2023/04/25 10:54:54;;;;;;;;;9.33;9.33;;;;;17.97;76.16;101190.47;5081180;28;45936;-77
2023/04/25 10:57:48;;;;;;;;;10.00;8.33;;;;;18.10;77.59;101194.13;5081206;28;45241;-76
2023/04/25 11:00:18;;;;;;;;;10.00;10.00;;;;;18.38;77.77;101180.38;5077395;28;45421;-77
2023/04/25 11:03:02;;;;;;;;;8.33;8.33;;;;;18.89;77.20;101191.19;5081179;28;45295;-76
2023/04/25 11:05:36;;;;;;;;;10.67;7.67;;;;;19.03;75.12;101181.16;5081241;28;45245;-76
2023/04/25 11:08:03;;;;;;;;;6.00;6.00;;;;;19.06;71.87;101185.28;5081488;28;45260;-76
2023/04/25 11:10:33;;;;;;;;;10.00;8.67;;;;;19.15;73.48;101193.94;5081088;28;45221;-76